Time;durP1;ratioP1;P1;durP2;ratioP2;P2;SDS_P1;SDS_P2;PMS_P1;PMS_P2;Temp;Humidity;BMP_temperature;BMP_pressure;BME280_temperature;BME280_humidity;BME280_pressure;Samples;Min_cycle;Max_cycle;Signal;HPM_P1;HPM_P2
2021/08/27 00:01:36;;;;;;;0.90;0.57;;;;;;;;;;5056383;28;20392;-56
2021/08/27 00:04:02;;;;;;;2.08;0.50;;;;;;;;;;5044657;28;20443;-57
2021/08/27 00:06:28;;;;;;;0.90;0.70;;;;;;;;;;5047602;28;20475;-58
2021/08/27 00:08:54;;;;;;;0.90;0.60;;;;;;;;;;5038119;28;20389;-55
2021/08/27 00:11:20;;;;;;;0.90;0.47;;;;;;;;;;5051015;28;20432;-56
2021/08/27 00:13:47;;;;;;;0.80;0.40;;;;;;;;;;5048392;28;20892;-57
2021/08/27 00:16:13;;;;;;;0.60;0.40;;;;;;;;;;5048780;28;20389;-58
2021/08/27 00:18:39;;;;;;;0.50;0.40;;;;;;;;;;5042089;28;20788;-60
2021/08/27 00:21:05;;;;;;;1.25;0.43;;;;;;;;;;5050524;28;20386;-58
2021/08/27 00:23:31;;;;;;;1.02;0.40;;;;;;;;;;5044847;28;20389;-59
2021/08/27 00:25:57;;;;;;;1.30;0.55;;;;;;;;;;5057416;28;20463;-59
2021/08/27 00:28:23;;;;;;;0.90;0.40;;;;;;;;;;5045963;28;20560;-56
2021/08/27 00:30:49;;;;;;;0.70;0.50;;;;;;;;;;5055886;28;20391;-58
2021/08/27 00:33:15;;;;;;;1.25;0.40;;;;;;;;;;5049042;28;20524;-59
2021/08/27 00:35:41;;;;;;;0.77;0.50;;;;;;;;;;5053156;28;20399;-58
2021/08/27 00:38:07;;;;;;;0.83;0.50;;;;;;;;;;5050086;28;20409;-58
2021/08/27 00:40:33;;;;;;;2.25;0.40;;;;;;;;;;5069405;28;20375;-58
2021/08/27 00:42:59;;;;;;;0.60;0.50;;;;;;;;;;5059564;28;20391;-58
2021/08/27 00:45:25;;;;;;;1.00;0.63;;;;;;;;;;5049482;28;20418;-59
2021/08/27 00:47:51;;;;;;;0.80;0.50;;;;;;;;;;5044909;28;20385;-59
2021/08/27 00:50:18;;;;;;;1.80;0.47;;;;;;;;;;5050365;28;20737;-58
2021/08/27 00:52:44;;;;;;;1.20;0.55;;;;;;;;;;5043057;28;20397;-58
2021/08/27 00:55:10;;;;;;;0.70;0.50;;;;;;;;;;5060236;28;20508;-59
2021/08/27 00:57:37;;;;;;;0.88;0.60;;;;;;;;;;5056134;28;20510;-59
2021/08/27 01:00:04;;;;;;;0.53;0.43;;;;;;;;;;5050868;28;20394;-59
2021/08/27 01:02:30;;;;;;;0.95;0.60;;;;;;;;;;5057455;28;20497;-59
2021/08/27 01:04:57;;;;;;;0.50;0.40;;;;;;;;;;5053159;28;20388;-60
2021/08/27 01:07:36;;;;;;;0.70;0.60;;;;;;;;;;5046704;28;20427;-59
2021/08/27 01:10:12;;;;;;;0.68;0.50;;;;;;;;;;5060165;28;20480;-58
2021/08/27 01:12:44;;;;;;;0.90;0.60;;;;;;;;;;5052856;28;20656;-58
2021/08/27 01:15:19;;;;;;;1.02;0.63;;;;;;;;;;5051087;28;20516;-59
2021/08/27 01:17:50;;;;;;;0.52;0.50;;;;;;;;;;5046258;28;20416;-59
2021/08/27 01:20:25;;;;;;;0.60;0.50;;;;;;;;;;5053351;28;20401;-58
2021/08/27 01:23:13;;;;;;;1.23;0.70;;;;;;;;;;5047746;28;20425;-58
2021/08/27 01:25:40;;;;;;;1.27;0.80;;;;;;;;;;5043456;28;20398;-54
2021/08/27 01:28:09;;;;;;;0.90;0.63;;;;;;;;;;5054035;28;20401;-58
2021/08/27 01:30:41;;;;;;;0.60;0.50;;;;;;;;;;5058346;28;20394;-59
2021/08/27 01:33:10;;;;;;;0.98;0.50;;;;;;;;;;5046746;28;20409;-59
2021/08/27 01:35:37;;;;;;;1.13;0.65;;;;;;;;;;5045275;28;20480;-57
2021/08/27 01:38:06;;;;;;;1.75;0.85;;;;;;;;;;5043722;28;20899;-58
2021/08/27 01:40:33;;;;;;;0.85;0.60;;;;;;;;;;5037909;28;20383;-56
2021/08/27 01:42:59;;;;;;;0.70;0.60;;;;;;;;;;5046301;28;20951;-58
2021/08/27 01:45:25;;;;;;;1.10;0.70;;;;;;;;;;5040982;28;20537;-55
2021/08/27 01:47:51;;;;;;;1.00;0.63;;;;;;;;;;5041070;28;20484;-57
2021/08/27 01:50:18;;;;;;;1.30;0.80;;;;;;;;;;5048516;28;20405;-55
2021/08/27 01:52:44;;;;;;;0.60;0.45;;;;;;;;;;5056091;28;20875;-57
2021/08/27 01:55:11;;;;;;;1.17;0.63;;;;;;;;;;5057581;28;20515;-56
2021/08/27 01:57:37;;;;;;;0.65;0.50;;;;;;;;;;5052898;28;20423;-58
2021/08/27 02:00:04;;;;;;;0.90;0.50;;;;;;;;;;5053812;28;20478;-57
2021/08/27 02:02:31;;;;;;;0.88;0.55;;;;;;;;;;5056824;28;20848;-57
2021/08/27 02:04:58;;;;;;;0.80;0.60;;;;;;;;;;5057903;28;20429;-58
2021/08/27 02:07:24;;;;;;;0.68;0.50;;;;;;;;;;5052226;28;20488;-53
2021/08/27 02:09:52;;;;;;;1.10;0.40;;;;;;;;;;5053211;28;20777;-57
2021/08/27 02:12:19;;;;;;;0.90;0.60;;;;;;;;;;5041952;28;20414;-56
2021/08/27 02:14:46;;;;;;;1.38;0.63;;;;;;;;;;5051083;28;20394;-57
2021/08/27 02:17:12;;;;;;;0.90;0.70;;;;;;;;;;5040955;28;20425;-55
2021/08/27 02:19:38;;;;;;;0.85;0.60;;;;;;;;;;5050595;28;20493;-53
2021/08/27 02:22:05;;;;;;;0.68;0.55;;;;;;;;;;5044031;28;20385;-55
2021/08/27 02:24:34;;;;;;;1.40;0.63;;;;;;;;;;5050552;28;20474;-56
2021/08/27 02:27:02;;;;;;;2.00;0.60;;;;;;;;;;5045720;28;20396;-56
2021/08/27 02:29:29;;;;;;;1.50;0.88;;;;;;;;;;5049566;28;20421;-56
2021/08/27 02:31:59;;;;;;;1.05;0.50;;;;;;;;;;5050777;28;20389;-54
2021/08/27 02:34:26;;;;;;;0.90;0.60;;;;;;;;;;5045237;28;20430;-58
2021/08/27 02:36:53;;;;;;;0.82;0.60;;;;;;;;;;5052968;28;20410;-56
2021/08/27 02:39:20;;;;;;;1.00;0.52;;;;;;;;;;5048661;28;20888;-58
2021/08/27 02:41:46;;;;;;;0.60;0.50;;;;;;;;;;5051076;28;20402;-55
2021/08/27 02:44:12;;;;;;;1.20;0.60;;;;;;;;;;5050028;28;20418;-56
2021/08/27 02:46:38;;;;;;;0.90;0.60;;;;;;;;;;5045823;28;20778;-59
2021/08/27 02:49:05;;;;;;;0.82;0.45;;;;;;;;;;5052859;28;20391;-58
2021/08/27 02:51:35;;;;;;;0.82;0.60;;;;;;;;;;5047275;28;20397;-54
2021/08/27 02:54:03;;;;;;;0.65;0.50;;;;;;;;;;5051946;28;20749;-56
2021/08/27 02:56:33;;;;;;;0.77;0.50;;;;;;;;;;5051754;28;20395;-59
2021/08/27 02:58:59;;;;;;;1.10;0.70;;;;;;;;;;5043533;28;20386;-57
2021/08/27 03:01:36;;;;;;;0.50;0.50;;;;;;;;;;5051656;28;20473;-57
2021/08/27 03:04:08;;;;;;;1.00;0.60;;;;;;;;;;5043953;28;20389;-54
2021/08/27 03:06:55;;;;;;;0.65;0.50;;;;;;;;;;5047163;28;20417;-52
2021/08/27 03:09:21;;;;;;;1.08;0.50;;;;;;;;;;5042263;28;20501;-58
2021/08/27 03:11:52;;;;;;;1.23;0.60;;;;;;;;;;5039936;28;20446;-56
2021/08/27 03:14:37;;;;;;;1.17;0.80;;;;;;;;;;5049899;28;20377;-57
2021/08/27 03:17:04;;;;;;;0.45;0.43;;;;;;;;;;5060144;28;20506;-54
2021/08/27 03:19:53;;;;;;;0.65;0.45;;;;;;;;;;5054127;28;20429;-57
2021/08/27 03:22:22;;;;;;;1.13;0.50;;;;;;;;;;5029942;28;20519;-56
2021/08/27 03:25:00;;;;;;;0.80;0.47;;;;;;;;;;5055328;28;20889;-57
2021/08/27 03:27:31;;;;;;;0.60;0.50;;;;;;;;;;5039902;28;20799;-56
2021/08/27 03:30:01;;;;;;;0.77;0.50;;;;;;;;;;5056503;28;20420;-58
2021/08/27 03:32:28;;;;;;;0.70;0.50;;;;;;;;;;5046249;28;20405;-57
2021/08/27 03:34:54;;;;;;;0.63;0.50;;;;;;;;;;5048078;28;20394;-57
2021/08/27 03:37:20;;;;;;;1.20;0.50;;;;;;;;;;5051287;28;20409;-58
2021/08/27 03:39:47;;;;;;;0.82;0.52;;;;;;;;;;5055850;28;20387;-56
2021/08/27 03:42:16;;;;;;;1.23;0.57;;;;;;;;;;5057584;28;20395;-56
2021/08/27 03:44:42;;;;;;;0.60;0.40;;;;;;;;;;5047167;28;20771;-54
2021/08/27 03:47:09;;;;;;;0.50;0.40;;;;;;;;;;5042368;28;20407;-56
2021/08/27 03:49:35;;;;;;;1.30;0.47;;;;;;;;;;5055112;28;20444;-57
2021/08/27 03:52:02;;;;;;;1.10;0.50;;;;;;;;;;5056449;28;20548;-57
2021/08/27 03:54:28;;;;;;;0.50;0.40;;;;;;;;;;5045562;28;20394;-56
2021/08/27 03:56:54;;;;;;;1.20;0.30;;;;;;;;;;5055964;28;20414;-53
2021/08/27 03:59:21;;;;;;;0.55;0.43;;;;;;;;;;5048504;28;20504;-57
2021/08/27 04:01:48;;;;;;;0.60;0.50;;;;;;;;;;5046077;28;20490;-58
2021/08/27 04:04:20;;;;;;;0.53;0.40;;;;;;;;;;5050494;28;20438;-58
2021/08/27 04:06:53;;;;;;;1.10;0.50;;;;;;;;;;5050402;28;20399;-56
2021/08/27 04:09:19;;;;;;;0.43;0.30;;;;;;;;;;5044858;28;20420;-54
2021/08/27 04:11:45;;;;;;;1.17;0.40;;;;;;;;;;5048245;28;20492;-56
2021/08/27 04:14:11;;;;;;;0.40;0.40;;;;;;;;;;5041682;28;20469;-55
2021/08/27 04:16:44;;;;;;;0.32;0.30;;;;;;;;;;5046858;28;20500;-58
2021/08/27 04:19:10;;;;;;;0.30;0.30;;;;;;;;;;5043556;28;20852;-58
2021/08/27 04:21:36;;;;;;;0.52;0.30;;;;;;;;;;5047032;28;20510;-59
2021/08/27 04:24:02;;;;;;;3.38;0.70;;;;;;;;;;5033079;28;20539;-57
2021/08/27 04:26:28;;;;;;;0.28;0.28;;;;;;;;;;5046307;28;20501;-55
2021/08/27 04:28:54;;;;;;;0.33;0.30;;;;;;;;;;5037625;28;20391;-59
2021/08/27 04:31:20;;;;;;;0.50;0.30;;;;;;;;;;5064885;28;20483;-57
2021/08/27 04:33:46;;;;;;;0.40;0.30;;;;;;;;;;5045177;28;20470;-57
2021/08/27 04:36:12;;;;;;;0.60;0.40;;;;;;;;;;5036894;28;20435;-57
2021/08/27 04:38:38;;;;;;;0.30;0.30;;;;;;;;;;5039775;28;20908;-55
2021/08/27 04:41:04;;;;;;;0.30;0.20;;;;;;;;;;5046244;28;20445;-54
2021/08/27 04:43:30;;;;;;;0.40;0.30;;;;;;;;;;5040321;28;20385;-57
2021/08/27 04:45:56;;;;;;;0.23;0.20;;;;;;;;;;5046051;28;20408;-58
2021/08/27 04:48:22;;;;;;;0.50;0.40;;;;;;;;;;5040086;28;20413;-52
2021/08/27 04:50:48;;;;;;;0.60;0.30;;;;;;;;;;5045601;28;20384;-57
2021/08/27 04:53:14;;;;;;;0.38;0.20;;;;;;;;;;5047657;28;20409;-55
2021/08/27 04:55:40;;;;;;;0.30;0.30;;;;;;;;;;5051501;28;20406;-55
2021/08/27 04:58:06;;;;;;;0.40;0.30;;;;;;;;;;5041267;28;20512;-54
2021/08/27 05:00:32;;;;;;;0.20;0.20;;;;;;;;;;5048885;28;20799;-56
2021/08/27 05:02:58;;;;;;;0.20;0.20;;;;;;;;;;5046616;28;20420;-57
2021/08/27 05:05:24;;;;;;;0.50;0.40;;;;;;;;;;5050067;28;20385;-58
2021/08/27 05:07:50;;;;;;;0.38;0.30;;;;;;;;;;5045783;28;20389;-58
2021/08/27 05:10:16;;;;;;;0.40;0.28;;;;;;;;;;5045450;28;20393;-58
2021/08/27 05:12:42;;;;;;;0.40;0.30;;;;;;;;;;5024558;28;20409;-59
2021/08/27 05:15:09;;;;;;;0.27;0.20;;;;;;;;;;5042278;28;20437;-58
2021/08/27 05:17:35;;;;;;;0.28;0.28;;;;;;;;;;5042270;28;20424;-58
2021/08/27 05:20:01;;;;;;;0.60;0.30;;;;;;;;;;5041260;28;20403;-57
2021/08/27 05:22:27;;;;;;;0.35;0.30;;;;;;;;;;5044988;28;20449;-57
2021/08/27 05:24:53;;;;;;;0.20;0.20;;;;;;;;;;5047865;28;20409;-53
2021/08/27 05:27:19;;;;;;;0.20;0.20;;;;;;;;;;5053305;28;20440;-56
2021/08/27 05:29:45;;;;;;;0.50;0.20;;;;;;;;;;5046755;28;20391;-57
2021/08/27 05:32:11;;;;;;;0.60;0.50;;;;;;;;;;5025868;28;20894;-54
2021/08/27 05:34:37;;;;;;;0.30;0.27;;;;;;;;;;5052565;28;20394;-52
2021/08/27 05:37:04;;;;;;;0.35;0.30;;;;;;;;;;5051581;28;20414;-56
2021/08/27 05:39:30;;;;;;;0.52;0.20;;;;;;;;;;5050317;28;20388;-58
2021/08/27 05:41:56;;;;;;;0.40;0.30;;;;;;;;;;5046632;28;20424;-55
2021/08/27 05:44:22;;;;;;;0.85;0.50;;;;;;;;;;5047136;28;20401;-56
2021/08/27 05:46:49;;;;;;;0.50;0.40;;;;;;;;;;5037963;28;20406;-57
2021/08/27 05:49:15;;;;;;;0.50;0.20;;;;;;;;;;5051933;28;20462;-59
2021/08/27 05:51:41;;;;;;;0.17;0.17;;;;;;;;;;5046798;28;20477;-59
2021/08/27 05:54:07;;;;;;;0.30;0.22;;;;;;;;;;5045572;28;20749;-58
2021/08/27 05:56:33;;;;;;;0.30;0.20;;;;;;;;;;5043593;28;20391;-59
2021/08/27 05:59:00;;;;;;;0.20;0.10;;;;;;;;;;5045166;28;20917;-56
2021/08/27 06:01:26;;;;;;;0.28;0.20;;;;;;;;;;5052939;28;20419;-59
2021/08/27 06:03:51;;;;;;;0.20;0.20;;;;;;;;;;5043898;28;20389;-59
2021/08/27 06:06:18;;;;;;;0.20;0.20;;;;;;;;;;5040881;28;20399;-58
2021/08/27 06:08:44;;;;;;;0.20;0.20;;;;;;;;;;5041473;28;20452;-59
2021/08/27 06:11:10;;;;;;;0.30;0.20;;;;;;;;;;5047262;28;20402;-55
2021/08/27 06:13:36;;;;;;;0.20;0.10;;;;;;;;;;5044798;28;20491;-55
2021/08/27 06:16:02;;;;;;;0.20;0.20;;;;;;;;;;5061801;28;20415;-56
2021/08/27 06:18:28;;;;;;;0.35;0.30;;;;;;;;;;5048693;28;20452;-55
2021/08/27 06:20:54;;;;;;;1.20;0.13;;;;;;;;;;5055249;28;20387;-53
2021/08/27 06:23:20;;;;;;;0.20;0.20;;;;;;;;;;5041969;28;20519;-56
2021/08/27 06:25:46;;;;;;;0.40;0.30;;;;;;;;;;5034911;28;20383;-53
2021/08/27 06:28:12;;;;;;;0.47;0.30;;;;;;;;;;5040675;28;20875;-56
2021/08/27 06:30:38;;;;;;;0.70;0.30;;;;;;;;;;5053626;28;20395;-53
2021/08/27 06:33:04;;;;;;;0.28;0.20;;;;;;;;;;5068008;28;20460;-56
2021/08/27 06:35:31;;;;;;;0.75;0.20;;;;;;;;;;5042722;28;20393;-58
2021/08/27 06:40:42;;;;;;;0.50;0.20;;;;;;;;;;5050915;28;20394;-55
2021/08/27 06:43:09;;;;;;;0.22;0.20;;;;;;;;;;5043869;28;20405;-58
2021/08/27 06:45:35;;;;;;;0.60;0.20;;;;;;;;;;5056139;28;20477;-58
2021/08/27 06:48:01;;;;;;;0.90;0.30;;;;;;;;;;5046225;28;20425;-54
2021/08/27 06:50:27;;;;;;;0.13;0.13;;;;;;;;;;5056550;28;20399;-59
2021/08/27 06:52:54;;;;;;;2.10;0.20;;;;;;;;;;5041765;28;20535;-59
2021/08/27 06:55:20;;;;;;;0.40;0.20;;;;;;;;;;5054895;28;20427;-57
2021/08/27 06:57:46;;;;;;;0.80;0.20;;;;;;;;;;5045025;28;20416;-58
2021/08/27 07:00:12;;;;;;;0.32;0.20;;;;;;;;;;5050103;28;20427;-58
2021/08/27 07:02:38;;;;;;;0.30;0.30;;;;;;;;;;5054579;28;20393;-56
2021/08/27 07:05:04;;;;;;;0.90;0.30;;;;;;;;;;5039702;28;20395;-55
2021/08/27 07:07:30;;;;;;;0.22;0.20;;;;;;;;;;5052680;28;20377;-54
2021/08/27 07:09:56;;;;;;;0.40;0.20;;;;;;;;;;5053972;28;20746;-56
2021/08/27 07:12:22;;;;;;;0.32;0.25;;;;;;;;;;5044744;28;20405;-57
2021/08/27 07:14:50;;;;;;;0.10;0.10;;;;;;;;;;5043380;28;20401;-56
2021/08/27 07:17:18;;;;;;;0.10;0.10;;;;;;;;;;5050099;28;20460;-54
2021/08/27 07:19:44;;;;;;;0.35;0.22;;;;;;;;;;5054506;28;20385;-57
2021/08/27 07:22:10;;;;;;;0.17;0.10;;;;;;;;;;5041276;28;20395;-57
2021/08/27 07:24:36;;;;;;;0.30;0.20;;;;;;;;;;5051237;28;20470;-58
2021/08/27 07:27:02;;;;;;;0.17;0.17;;;;;;;;;;5053346;28;20472;-58
2021/08/27 07:29:28;;;;;;;0.20;0.10;;;;;;;;;;5049978;28;20975;-58
2021/08/27 07:31:54;;;;;;;0.10;0.10;;;;;;;;;;5057107;28;20387;-57
2021/08/27 07:34:20;;;;;;;0.20;0.17;;;;;;;;;;5048372;28;20437;-58
2021/08/27 07:36:46;;;;;;;0.20;0.20;;;;;;;;;;5055320;28;20395;-59
2021/08/27 07:39:12;;;;;;;0.65;0.20;;;;;;;;;;5062347;28;20844;-56
2021/08/27 07:41:38;;;;;;;0.20;0.13;;;;;;;;;;5055730;28;20396;-58
2021/08/27 07:44:04;;;;;;;0.20;0.20;;;;;;;;;;5046428;28;20373;-58
2021/08/27 07:46:30;;;;;;;0.15;0.10;;;;;;;;;;5052226;28;20484;-58
2021/08/27 07:48:56;;;;;;;0.40;0.20;;;;;;;;;;5052700;28;20404;-56
2021/08/27 07:51:22;;;;;;;0.20;0.20;;;;;;;;;;5054148;28;20844;-55
2021/08/27 07:53:48;;;;;;;0.20;0.10;;;;;;;;;;5050901;28;20421;-57
2021/08/27 07:56:14;;;;;;;0.50;0.20;;;;;;;;;;5045875;28;20496;-54
2021/08/27 07:58:40;;;;;;;0.15;0.10;;;;;;;;;;5044490;28;20415;-55
2021/08/27 08:01:06;;;;;;;0.22;0.20;;;;;;;;;;5044098;28;20390;-56
2021/08/27 08:03:32;;;;;;;0.80;0.22;;;;;;;;;;5048074;28;20398;-56
2021/08/27 08:05:58;;;;;;;0.30;0.20;;;;;;;;;;5023577;28;20399;-56
2021/08/27 08:08:24;;;;;;;0.27;0.17;;;;;;;;;;5054829;28;20399;-57
2021/08/27 08:10:50;;;;;;;0.20;0.13;;;;;;;;;;5051423;28;20401;-58
2021/08/27 08:13:16;;;;;;;0.20;0.10;;;;;;;;;;5046479;28;21181;-56
2021/08/27 08:15:42;;;;;;;0.30;0.20;;;;;;;;;;5052812;28;20845;-59
2021/08/27 08:18:08;;;;;;;0.20;0.20;;;;;;;;;;5047347;28;20787;-59
2021/08/27 08:20:34;;;;;;;0.30;0.20;;;;;;;;;;5054246;28;20386;-59
2021/08/27 08:23:00;;;;;;;0.35;0.30;;;;;;;;;;5044415;28;20394;-58
2021/08/27 08:25:25;;;;;;;0.20;0.15;;;;;;;;;;5045238;28;20863;-58
2021/08/27 08:27:51;;;;;;;0.10;0.10;;;;;;;;;;5044263;28;20882;-59
2021/08/27 08:30:17;;;;;;;0.40;0.20;;;;;;;;;;5035568;28;20770;-59
2021/08/27 08:32:43;;;;;;;0.43;0.30;;;;;;;;;;5050108;28;20475;-58
2021/08/27 08:35:09;;;;;;;0.10;0.10;;;;;;;;;;5059279;28;20395;-58
2021/08/27 08:37:39;;;;;;;0.70;0.20;;;;;;;;;;5057902;28;20486;-58
2021/08/27 08:40:05;;;;;;;0.17;0.13;;;;;;;;;;5052530;28;20399;-59
2021/08/27 08:42:31;;;;;;;0.28;0.28;;;;;;;;;;5054370;28;20481;-56
2021/08/27 08:44:57;;;;;;;0.20;0.20;;;;;;;;;;5040654;28;20409;-59
2021/08/27 08:47:23;;;;;;;0.80;0.30;;;;;;;;;;5057990;28;20455;-55
2021/08/27 08:49:49;;;;;;;0.40;0.22;;;;;;;;;;5053786;28;20395;-55
2021/08/27 08:52:17;;;;;;;0.60;0.37;;;;;;;;;;5045954;28;20440;-55
2021/08/27 08:54:43;;;;;;;0.30;0.30;;;;;;;;;;5050577;28;20481;-57
2021/08/27 08:57:09;;;;;;;0.20;0.20;;;;;;;;;;5042062;28;20496;-57
2021/08/27 08:59:36;;;;;;;0.40;0.30;;;;;;;;;;5052230;28;20388;-56
2021/08/27 09:02:02;;;;;;;0.55;0.30;;;;;;;;;;5052314;28;20427;-57
2021/08/27 09:04:29;;;;;;;0.70;0.30;;;;;;;;;;5041644;28;20387;-58
2021/08/27 09:06:58;;;;;;;0.50;0.30;;;;;;;;;;5054014;28;20399;-59
2021/08/27 09:09:31;;;;;;;0.90;0.40;;;;;;;;;;5054416;28;20387;-58
2021/08/27 09:11:57;;;;;;;0.50;0.40;;;;;;;;;;5044918;28;20479;-59
2021/08/27 09:14:31;;;;;;;0.50;0.30;;;;;;;;;;5044161;28;20772;-58
2021/08/27 09:17:06;;;;;;;0.30;0.20;;;;;;;;;;5026919;28;20450;-59
2021/08/27 09:19:51;;;;;;;0.20;0.17;;;;;;;;;;5040536;28;20400;-59
2021/08/27 09:22:17;;;;;;;0.20;0.20;;;;;;;;;;5049942;28;20481;-59
2021/08/27 09:24:44;;;;;;;0.57;0.22;;;;;;;;;;5064161;28;20863;-59
2021/08/27 09:27:11;;;;;;;0.20;0.10;;;;;;;;;;5069308;28;20414;-59
2021/08/27 09:29:45;;;;;;;0.20;0.10;;;;;;;;;;5046829;28;20400;-57
2021/08/27 09:32:22;;;;;;;1.40;0.20;;;;;;;;;;5058300;28;20844;-59
2021/08/27 09:34:48;;;;;;;0.10;0.10;;;;;;;;;;5043114;28;20396;-57
2021/08/27 09:37:14;;;;;;;0.20;0.17;;;;;;;;;;5062258;28;20887;-58
2021/08/27 09:39:40;;;;;;;0.20;0.13;;;;;;;;;;5062140;28;20499;-57
2021/08/27 09:42:06;;;;;;;0.17;0.10;;;;;;;;;;5062287;28;20387;-58
2021/08/27 09:44:32;;;;;;;0.20;0.10;;;;;;;;;;5050455;28;20398;-55
2021/08/27 09:47:05;;;;;;;0.00;0.00;;;;;;;;;;5055249;28;21068;-56
2021/08/27 09:49:40;;;;;;;0.10;0.10;;;;;;;;;;5058272;28;20498;-55
2021/08/27 09:52:10;;;;;;;0.88;0.20;;;;;;;;;;5052164;28;21042;-59
2021/08/27 09:54:38;;;;;;;0.28;0.13;;;;;;;;;;5055750;28;20384;-56
2021/08/27 09:57:05;;;;;;;0.10;0.10;;;;;;;;;;5046839;28;20457;-55
2021/08/27 09:59:35;;;;;;;0.10;0.10;;;;;;;;;;5052031;28;20395;-57
2021/08/27 10:02:01;;;;;;;0.60;0.10;;;;;;;;;;5052157;28;20943;-56
2021/08/27 10:04:27;;;;;;;0.20;0.20;;;;;;;;;;5050480;28;20387;-57
2021/08/27 10:06:53;;;;;;;0.40;0.10;;;;;;;;;;5057013;28;20386;-57
2021/08/27 10:09:19;;;;;;;0.10;0.00;;;;;;;;;;5050586;28;20690;-58
2021/08/27 10:11:47;;;;;;;0.60;0.10;;;;;;;;;;5049632;28;20390;-57
2021/08/27 10:14:13;;;;;;;0.00;0.00;;;;;;;;;;5048909;28;20389;-58
2021/08/27 10:16:41;;;;;;;0.10;0.10;;;;;;;;;;5047637;28;20414;-59
2021/08/27 10:19:07;;;;;;;0.03;0.03;;;;;;;;;;5043822;28;20910;-55
2021/08/27 10:21:33;;;;;;;0.37;0.10;;;;;;;;;;5052846;28;20461;-57
2021/08/27 10:23:59;;;;;;;0.00;0.00;;;;;;;;;;5055514;28;20984;-57
2021/08/27 10:26:27;;;;;;;0.35;0.10;;;;;;;;;;5054307;28;20392;-55
2021/08/27 10:28:54;;;;;;;0.10;0.10;;;;;;;;;;5049768;28;20499;-56
2021/08/27 10:31:39;;;;;;;0.00;0.00;;;;;;;;;;5052777;28;20385;-58
2021/08/27 10:34:06;;;;;;;0.13;0.10;;;;;;;;;;5048535;28;20445;-58
2021/08/27 10:36:32;;;;;;;0.10;0.00;;;;;;;;;;5035679;28;20394;-58
2021/08/27 10:38:59;;;;;;;0.00;0.00;;;;;;;;;;5036276;28;20414;-58
2021/08/27 10:41:37;;;;;;;0.25;0.10;;;;;;;;;;5037964;28;20399;-54
2021/08/27 10:44:10;;;;;;;0.10;0.00;;;;;;;;;;5053093;28;20393;-57
2021/08/27 10:46:48;;;;;;;0.10;0.10;;;;;;;;;;5051686;28;20941;-57
2021/08/27 10:49:18;;;;;;;0.43;0.10;;;;;;;;;;5059590;28;20771;-57
2021/08/27 10:51:45;;;;;;;0.10;0.00;;;;;;;;;;5053024;28;20843;-53
2021/08/27 10:54:12;;;;;;;0.10;0.10;;;;;;;;;;5048140;28;20531;-54
2021/08/27 10:56:41;;;;;;;0.20;0.05;;;;;;;;;;5047237;28;20386;-54
2021/08/27 10:59:08;;;;;;;0.00;0.00;;;;;;;;;;5046359;28;20890;-55
2021/08/27 11:01:38;;;;;;;0.10;0.10;;;;;;;;;;5052258;28;20381;-58
2021/08/27 11:04:23;;;;;;;0.10;0.05;;;;;;;;;;5054921;28;20373;-54
2021/08/27 11:06:53;;;;;;;0.00;0.00;;;;;;;;;;5046903;28;20404;-56
2021/08/27 11:09:21;;;;;;;0.00;0.00;;;;;;;;;;5055621;28;20389;-56
2021/08/27 11:11:47;;;;;;;0.00;0.00;;;;;;;;;;5048972;28;20444;-58
2021/08/27 11:14:14;;;;;;;0.30;0.10;;;;;;;;;;5050846;28;20403;-55
2021/08/27 11:16:40;;;;;;;0.00;0.00;;;;;;;;;;5043766;28;20417;-55
2021/08/27 11:19:24;;;;;;;0.05;0.05;;;;;;;;;;5051721;28;20409;-58
2021/08/27 11:21:55;;;;;;;0.20;0.10;;;;;;;;;;5051472;28;20408;-55
2021/08/27 11:24:22;;;;;;;0.00;0.00;;;;;;;;;;5057177;28;20470;-57
2021/08/27 11:26:57;;;;;;;0.10;0.10;;;;;;;;;;5059607;28;20732;-57
2021/08/27 11:29:29;;;;;;;0.00;0.00;;;;;;;;;;5051284;28;20405;-55
2021/08/27 11:31:55;;;;;;;0.10;0.08;;;;;;;;;;5045549;28;20417;-55
2021/08/27 11:34:47;;;;;;;0.20;0.10;;;;;;;;;;5050737;28;20403;-57
2021/08/27 11:37:14;;;;;;;0.10;0.10;;;;;;;;;;5058471;28;20420;-57
2021/08/27 11:39:40;;;;;;;0.20;0.10;;;;;;;;;;5045891;28;20409;-56
2021/08/27 11:42:07;;;;;;;0.30;0.13;;;;;;;;;;5054701;28;20898;-57
2021/08/27 11:44:42;;;;;;;0.20;0.20;;;;;;;;;;5048455;28;20374;-54
2021/08/27 11:47:10;;;;;;;0.20;0.20;;;;;;;;;;5047967;28;20399;-57
2021/08/27 11:49:38;;;;;;;0.28;0.20;;;;;;;;;;5053972;28;20866;-57
2021/08/27 11:52:04;;;;;;;0.20;0.17;;;;;;;;;;5062478;28;20371;-56
2021/08/27 11:54:30;;;;;;;0.30;0.20;;;;;;;;;;5051999;28;20392;-57
2021/08/27 11:56:56;;;;;;;0.15;0.10;;;;;;;;;;5043800;28;20438;-58
2021/08/27 11:59:26;;;;;;;0.10;0.10;;;;;;;;;;5041490;28;20470;-57
2021/08/27 12:01:52;;;;;;;1.75;0.20;;;;;;;;;;5053556;28;20507;-58
2021/08/27 12:04:30;;;;;;;0.30;0.10;;;;;;;;;;5054454;28;20397;-59
2021/08/27 12:07:12;;;;;;;0.28;0.20;;;;;;;;;;5050904;28;20449;-57
2021/08/27 12:09:39;;;;;;;1.55;0.20;;;;;;;;;;5046673;28;20448;-58
2021/08/27 12:12:05;;;;;;;0.10;0.10;;;;;;;;;;5041130;28;20389;-58
2021/08/27 12:14:47;;;;;;;0.70;0.20;;;;;;;;;;5046172;28;21044;-58
2021/08/27 12:17:17;;;;;;;0.10;0.10;;;;;;;;;;5042895;28;20456;-58
2021/08/27 12:19:43;;;;;;;0.10;0.00;;;;;;;;;;5044684;28;21059;-58
2021/08/27 12:22:12;;;;;;;0.47;0.30;;;;;;;;;;5048591;28;20389;-58
2021/08/27 12:24:38;;;;;;;0.10;0.10;;;;;;;;;;5051876;28;20412;-58
2021/08/27 12:27:04;;;;;;;0.30;0.20;;;;;;;;;;5054483;28;21245;-53
2021/08/27 12:29:30;;;;;;;0.73;0.20;;;;;;;;;;5045896;28;20402;-58
2021/08/27 12:31:56;;;;;;;0.10;0.10;;;;;;;;;;5049119;28;21077;-57
2021/08/27 12:34:22;;;;;;;0.25;0.10;;;;;;;;;;5056354;28;20423;-54
2021/08/27 12:36:49;;;;;;;0.20;0.10;;;;;;;;;;5050165;28;20475;-55
2021/08/27 12:39:16;;;;;;;0.30;0.20;;;;;;;;;;5041405;28;20555;-54
2021/08/27 12:41:42;;;;;;;0.30;0.20;;;;;;;;;;5055975;28;20428;-52
2021/08/27 12:44:09;;;;;;;0.60;0.35;;;;;;;;;;5052891;28;20389;-55
2021/08/27 12:46:35;;;;;;;0.40;0.20;;;;;;;;;;5054462;28;20792;-53
2021/08/27 12:49:20;;;;;;;0.30;0.20;;;;;;;;;;5053726;28;20761;-58
2021/08/27 12:51:58;;;;;;;0.30;0.20;;;;;;;;;;5054663;28;20459;-54
2021/08/27 12:54:25;;;;;;;0.65;0.25;;;;;;;;;;5049887;28;20385;-52
2021/08/27 12:57:04;;;;;;;0.40;0.30;;;;;;;;;;5048928;28;20389;-55
2021/08/27 12:59:30;;;;;;;0.22;0.17;;;;;;;;;;5044981;28;20408;-59
2021/08/27 13:01:57;;;;;;;0.57;0.38;;;;;;;;;;5054301;28;20521;-57
2021/08/27 13:04:43;;;;;;;0.40;0.30;;;;;;;;;;5056562;28;20904;-55
2021/08/27 13:07:23;;;;;;;0.77;0.40;;;;;;;;;;5052087;28;20448;-58
2021/08/27 13:09:49;;;;;;;0.20;0.13;;;;;;;;;;5053837;28;20455;-58
2021/08/27 13:12:28;;;;;;;0.88;0.40;;;;;;;;;;5046452;28;20403;-58
2021/08/27 13:14:57;;;;;;;0.40;0.20;;;;;;;;;;5036668;28;20403;-55
2021/08/27 13:17:23;;;;;;;0.10;0.10;;;;;;;;;;5045112;28;20442;-53
2021/08/27 13:19:55;;;;;;;0.40;0.25;;;;;;;;;;5049925;28;20395;-52
2021/08/27 13:22:36;;;;;;;0.55;0.20;;;;;;;;;;5048969;28;20482;-54
2021/08/27 13:25:08;;;;;;;0.10;0.10;;;;;;;;;;5063082;28;20708;-56
2021/08/27 13:27:35;;;;;;;0.30;0.17;;;;;;;;;;5057416;28;20396;-54
2021/08/27 13:30:04;;;;;;;0.38;0.20;;;;;;;;;;5051690;28;20488;-56
2021/08/27 13:32:39;;;;;;;0.20;0.10;;;;;;;;;;5048899;28;20480;-58
2021/08/27 13:35:06;;;;;;;0.10;0.10;;;;;;;;;;5050221;28;20934;-53
2021/08/27 13:37:32;;;;;;;0.00;0.00;;;;;;;;;;5052301;28;20437;-51
2021/08/27 13:39:58;;;;;;;0.35;0.15;;;;;;;;;;5072212;28;20372;-51
2021/08/27 13:42:24;;;;;;;0.23;0.10;;;;;;;;;;5059920;28;20397;-55
2021/08/27 13:44:50;;;;;;;3.00;0.50;;;;;;;;;;5040967;28;20395;-58
2021/08/27 13:47:16;;;;;;;0.50;0.10;;;;;;;;;;5046042;28;20405;-57
2021/08/27 13:49:42;;;;;;;0.28;0.10;;;;;;;;;;5044696;28;20543;-57
2021/08/27 13:52:08;;;;;;;0.25;0.10;;;;;;;;;;5050052;28;20387;-58
2021/08/27 13:54:34;;;;;;;0.25;0.10;;;;;;;;;;5043720;28;20739;-57
2021/08/27 13:57:00;;;;;;;0.20;0.10;;;;;;;;;;5047385;28;20401;-56
2021/08/27 13:59:26;;;;;;;0.20;0.10;;;;;;;;;;5054656;28;20396;-56
2021/08/27 14:01:52;;;;;;;0.10;0.08;;;;;;;;;;5050522;28;20389;-55
2021/08/27 14:04:18;;;;;;;0.20;0.10;;;;;;;;;;5051386;28;20407;-55
2021/08/27 14:06:44;;;;;;;0.70;0.25;;;;;;;;;;5055021;28;20450;-56
2021/08/27 14:09:12;;;;;;;0.05;0.05;;;;;;;;;;5063083;28;20385;-57
2021/08/27 14:11:38;;;;;;;0.30;0.10;;;;;;;;;;5049769;28;20489;-56
2021/08/27 14:14:04;;;;;;;0.17;0.10;;;;;;;;;;5049571;28;20450;-53
2021/08/27 14:16:30;;;;;;;0.20;0.10;;;;;;;;;;5048145;28;20561;-57
2021/08/27 14:18:56;;;;;;;1.02;0.25;;;;;;;;;;5055508;28;20400;-57
2021/08/27 14:21:22;;;;;;;0.35;0.15;;;;;;;;;;5049426;28;20410;-56
2021/08/27 14:23:48;;;;;;;0.10;0.10;;;;;;;;;;5052765;28;20404;-54
2021/08/27 14:26:14;;;;;;;1.00;0.20;;;;;;;;;;5067847;28;20780;-52
2021/08/27 14:28:40;;;;;;;0.15;0.00;;;;;;;;;;5061464;28;20399;-54
2021/08/27 14:31:09;;;;;;;0.10;0.10;;;;;;;;;;5050434;28;20408;-56
2021/08/27 14:33:35;;;;;;;0.15;0.10;;;;;;;;;;5059340;28;20465;-58
2021/08/27 14:36:02;;;;;;;0.10;0.05;;;;;;;;;;5047760;28;20416;-57
2021/08/27 14:38:28;;;;;;;0.00;0.00;;;;;;;;;;5046210;28;20504;-57
2021/08/27 14:40:53;;;;;;;0.22;0.00;;;;;;;;;;5048624;28;20397;-57
2021/08/27 14:43:20;;;;;;;0.00;0.00;;;;;;;;;;5043930;28;20428;-55
2021/08/27 14:45:46;;;;;;;0.00;0.00;;;;;;;;;;5046332;28;20753;-58
2021/08/27 14:48:12;;;;;;;0.10;0.10;;;;;;;;;;5044407;28;20409;-58
2021/08/27 14:50:38;;;;;;;0.40;0.10;;;;;;;;;;5044725;28;20385;-56